Time;durP1;ratioP1;P1;durP2;ratioP2;P2;SDS_P1;SDS_P2;PMS_P1;PMS_P2;Temp;Humidity;BMP_temperature;BMP_pressure;BME280_temperature;BME280_humidity;BME280_pressure;Samples;Min_cycle;Max_cycle;Signal;HPM_P1;HPM_P2
2021/12/03 00:02:06;;;;;;;82.40;49.08;;;;;;;;;;5023049;28;20049;-81
2021/12/03 00:04:32;;;;;;;87.70;48.25;;;;;;;;;;5021684;28;20053;-80
2021/12/03 00:06:58;;;;;;;82.10;48.42;;;;;;;;;;5020523;28;20042;-82
2021/12/03 00:09:24;;;;;;;84.32;46.70;;;;;;;;;;5018323;28;20425;-80
2021/12/03 00:11:50;;;;;;;83.65;47.38;;;;;;;;;;5018977;28;20072;-82
2021/12/03 00:14:16;;;;;;;85.28;44.38;;;;;;;;;;5018003;28;20038;-82
2021/12/03 00:16:42;;;;;;;78.00;45.22;;;;;;;;;;5017756;28;20046;-81
2021/12/03 00:19:08;;;;;;;72.07;43.25;;;;;;;;;;5018508;28;20038;-81
2021/12/03 00:21:34;;;;;;;76.15;43.58;;;;;;;;;;5019044;28;20034;-83
2021/12/03 00:24:00;;;;;;;68.85;40.78;;;;;;;;;;5019075;28;20068;-83
2021/12/03 00:26:26;;;;;;;65.30;40.05;;;;;;;;;;5019549;28;20041;-84
2021/12/03 00:28:52;;;;;;;60.42;38.55;;;;;;;;;;5019859;28;20037;-81
2021/12/03 00:31:18;;;;;;;63.80;40.20;;;;;;;;;;5019647;28;20366;-82
2021/12/03 00:33:44;;;;;;;64.13;41.22;;;;;;;;;;5022867;28;20041;-83
2021/12/03 00:36:10;;;;;;;70.50;40.63;;;;;;;;;;5025645;28;20339;-84
2021/12/03 00:38:41;;;;;;;69.68;40.13;;;;;;;;;;5026802;28;20442;-84
2021/12/03 00:41:08;;;;;;;62.35;37.13;;;;;;;;;;5026722;28;20121;-84
2021/12/03 00:43:36;;;;;;;60.17;39.13;;;;;;;;;;5026527;28;20042;-83
2021/12/03 00:46:06;;;;;;;59.42;38.95;;;;;;;;;;5022144;28;20050;-84
2021/12/03 00:48:33;;;;;;;68.72;39.72;;;;;;;;;;5018362;28;20221;-81
2021/12/03 00:50:59;;;;;;;61.67;41.05;;;;;;;;;;5018537;28;20046;-80
2021/12/03 00:53:25;;;;;;;65.47;40.53;;;;;;;;;;5022932;28;20331;-81
2021/12/03 00:55:51;;;;;;;71.65;43.30;;;;;;;;;;5023177;28;20450;-81
2021/12/03 00:58:17;;;;;;;80.50;42.15;;;;;;;;;;5027784;28;20354;-79
2021/12/03 01:00:43;;;;;;;69.00;40.95;;;;;;;;;;5023905;28;20053;-81
2021/12/03 01:03:09;;;;;;;63.17;40.47;;;;;;;;;;5024966;28;20042;-82
2021/12/03 01:05:35;;;;;;;70.10;43.80;;;;;;;;;;5027857;28;20536;-82
2021/12/03 01:08:01;;;;;;;75.18;41.97;;;;;;;;;;5034042;28;20466;-78
2021/12/03 01:10:27;;;;;;;71.53;43.88;;;;;;;;;;5034669;28;20056;-82
2021/12/03 01:12:53;;;;;;;71.18;43.00;;;;;;;;;;5041192;28;20050;-81
2021/12/03 01:15:21;;;;;;;72.63;43.50;;;;;;;;;;5040392;28;20077;-80
2021/12/03 01:17:47;;;;;;;67.05;42.60;;;;;;;;;;5030016;28;20046;-82
2021/12/03 01:20:14;;;;;;;70.05;43.17;;;;;;;;;;5025677;28;20058;-82
2021/12/03 01:22:40;;;;;;;74.82;44.80;;;;;;;;;;5024739;28;20088;-82
2021/12/03 01:25:07;;;;;;;72.45;44.42;;;;;;;;;;5022450;28;20111;-81
2021/12/03 01:27:33;;;;;;;68.22;41.05;;;;;;;;;;5022517;28;20049;-82
2021/12/03 01:29:59;;;;;;;70.63;40.30;;;;;;;;;;5022847;28;20088;-81
2021/12/03 01:32:25;;;;;;;66.18;36.13;;;;;;;;;;5024602;28;20092;-83
2021/12/03 01:34:51;;;;;;;68.93;37.15;;;;;;;;;;5023288;28;20061;-82
2021/12/03 01:37:17;;;;;;;61.85;35.30;;;;;;;;;;5022047;28;20125;-81
2021/12/03 01:39:43;;;;;;;62.03;35.85;;;;;;;;;;5025506;28;20049;-80
2021/12/03 01:42:09;;;;;;;65.28;36.47;;;;;;;;;;5023670;28;20057;-80
2021/12/03 01:44:35;;;;;;;69.78;37.13;;;;;;;;;;5024109;28;20038;-80
2021/12/03 01:47:01;;;;;;;64.70;36.55;;;;;;;;;;5024368;28;20457;-82
2021/12/03 01:49:27;;;;;;;76.43;38.90;;;;;;;;;;5024105;28;20049;-81
2021/12/03 01:51:53;;;;;;;65.78;36.75;;;;;;;;;;5023343;28;20055;-81
2021/12/03 01:54:19;;;;;;;65.43;37.03;;;;;;;;;;5024770;28;20435;-84
2021/12/03 01:56:45;;;;;;;62.80;37.45;;;;;;;;;;5023806;28;20084;-81
2021/12/03 01:59:11;;;;;;;69.53;41.03;;;;;;;;;;5024441;28;20442;-83
2021/12/03 02:01:37;;;;;;;65.10;38.20;;;;;;;;;;5024560;28;20454;-83
2021/12/03 02:04:04;;;;;;;65.13;39.00;;;;;;;;;;5026897;28;20094;-83
2021/12/03 02:06:30;;;;;;;67.93;41.45;;;;;;;;;;5026206;28;20030;-83
2021/12/03 02:08:56;;;;;;;74.07;46.17;;;;;;;;;;5024837;28;20052;-83
2021/12/03 02:11:22;;;;;;;73.20;47.78;;;;;;;;;;5024381;28;20046;-82
2021/12/03 02:13:48;;;;;;;84.65;47.85;;;;;;;;;;5023613;28;20034;-83
2021/12/03 02:16:15;;;;;;;78.70;47.88;;;;;;;;;;5023230;28;20081;-84
2021/12/03 02:18:41;;;;;;;75.13;45.92;;;;;;;;;;5023431;28;20450;-83
2021/12/03 02:21:07;;;;;;;74.45;45.53;;;;;;;;;;5023082;28;20044;-81
2021/12/03 02:23:33;;;;;;;61.60;40.63;;;;;;;;;;5022972;28;20042;-83
2021/12/03 02:26:00;;;;;;;58.55;36.67;;;;;;;;;;5023029;28;20089;-83
2021/12/03 02:28:26;;;;;;;57.65;37.25;;;;;;;;;;5023828;28;20070;-81
2021/12/03 02:30:53;;;;;;;64.57;36.17;;;;;;;;;;5022136;28;20038;-81
2021/12/03 02:33:19;;;;;;;56.60;36.72;;;;;;;;;;5020081;28;20033;-80
2021/12/03 02:35:45;;;;;;;57.90;37.20;;;;;;;;;;5021596;28;20038;-82
2021/12/03 02:38:12;;;;;;;59.72;38.58;;;;;;;;;;5022305;28;20484;-81
2021/12/03 02:40:38;;;;;;;56.92;37.33;;;;;;;;;;5022041;28;20065;-80
2021/12/03 02:43:04;;;;;;;54.85;37.70;;;;;;;;;;5024148;28;20038;-82
2021/12/03 02:45:30;;;;;;;65.63;40.15;;;;;;;;;;5023618;28;20052;-83
2021/12/03 02:47:56;;;;;;;64.40;40.90;;;;;;;;;;5022536;28;20041;-81
2021/12/03 02:50:22;;;;;;;61.30;40.53;;;;;;;;;;5019976;28;20053;-81
2021/12/03 02:52:49;;;;;;;65.57;41.55;;;;;;;;;;5019550;28;20034;-80
2021/12/03 02:55:15;;;;;;;73.72;42.55;;;;;;;;;;5020546;28;20096;-79
2021/12/03 02:57:41;;;;;;;62.05;41.92;;;;;;;;;;5019879;28;20037;-82
2021/12/03 03:00:08;;;;;;;69.15;42.13;;;;;;;;;;5021590;28;20053;-82
2021/12/03 03:02:34;;;;;;;71.93;43.30;;;;;;;;;;5020005;28;20038;-81
2021/12/03 03:05:00;;;;;;;61.40;42.45;;;;;;;;;;5020699;28;20042;-82
2021/12/03 03:07:26;;;;;;;66.00;42.17;;;;;;;;;;5020400;28;20038;-81
2021/12/03 03:09:52;;;;;;;67.47;41.33;;;;;;;;;;5026268;28;20118;-80
2021/12/03 03:12:18;;;;;;;61.38;41.33;;;;;;;;;;5021121;28;20095;-81
2021/12/03 03:14:48;;;;;;;71.65;43.55;;;;;;;;;;5021811;28;20041;-81
2021/12/03 03:17:14;;;;;;;74.35;42.30;;;;;;;;;;5021975;28;20053;-81
2021/12/03 03:19:40;;;;;;;61.33;40.47;;;;;;;;;;5019650;28;20045;-81
2021/12/03 03:22:06;;;;;;;67.88;42.22;;;;;;;;;;5022827;28;20053;-81
2021/12/03 03:24:32;;;;;;;73.18;43.38;;;;;;;;;;5019666;28;20046;-80
2021/12/03 03:26:58;;;;;;;70.32;43.20;;;;;;;;;;5021639;28;20342;-82
2021/12/03 03:29:24;;;;;;;70.20;44.60;;;;;;;;;;5026073;28;20038;-81
2021/12/03 03:31:50;;;;;;;66.88;42.65;;;;;;;;;;5024408;28;20041;-79
2021/12/03 03:34:16;;;;;;;66.88;42.75;;;;;;;;;;5023130;28;20044;-81
2021/12/03 03:36:42;;;;;;;74.18;42.20;;;;;;;;;;5024889;28;20042;-82
2021/12/03 03:39:09;;;;;;;74.78;43.70;;;;;;;;;;5024689;28;20037;-84
2021/12/03 03:41:35;;;;;;;77.60;43.90;;;;;;;;;;5025363;28;20071;-83
2021/12/03 03:44:01;;;;;;;79.85;47.33;;;;;;;;;;5025635;28;20042;-81
2021/12/03 03:46:27;;;;;;;78.40;45.63;;;;;;;;;;5024254;28;20080;-81
2021/12/03 03:48:53;;;;;;;77.60;44.67;;;;;;;;;;5027669;28;20050;-80
2021/12/03 03:51:19;;;;;;;77.25;45.47;;;;;;;;;;5020773;28;20123;-82
2021/12/03 03:53:45;;;;;;;81.30;44.22;;;;;;;;;;5020418;28;20039;-81
2021/12/03 03:56:12;;;;;;;77.75;44.38;;;;;;;;;;5026645;28;20104;-83
2021/12/03 03:58:38;;;;;;;68.45;43.20;;;;;;;;;;5022938;28;20061;-82
2021/12/03 04:01:07;;;;;;;70.85;42.45;;;;;;;;;;5023900;28;20072;-82
2021/12/03 04:03:33;;;;;;;67.78;40.38;;;;;;;;;;5022773;28;20048;-82
2021/12/03 04:05:59;;;;;;;72.35;42.22;;;;;;;;;;5022320;28;20093;-82
2021/12/03 04:08:28;;;;;;;70.07;41.67;;;;;;;;;;5021027;28;20434;-82
2021/12/03 04:10:54;;;;;;;84.25;43.92;;;;;;;;;;5023587;28;20042;-84
2021/12/03 04:13:20;;;;;;;69.65;42.45;;;;;;;;;;5022690;28;20042;-82
2021/12/03 04:15:46;;;;;;;69.75;40.00;;;;;;;;;;5025673;28;20046;-80
2021/12/03 04:18:12;;;;;;;65.70;39.30;;;;;;;;;;5023025;28;20052;-84
2021/12/03 04:20:38;;;;;;;67.00;38.58;;;;;;;;;;5022122;28;20042;-84
2021/12/03 04:23:04;;;;;;;63.28;37.58;;;;;;;;;;5023340;28;20056;-81
2021/12/03 04:25:30;;;;;;;68.93;38.60;;;;;;;;;;5024601;28;20041;-83
2021/12/03 04:27:56;;;;;;;62.90;37.00;;;;;;;;;;5022131;28;20117;-83
2021/12/03 04:30:23;;;;;;;64.03;37.20;;;;;;;;;;5022087;28;20049;-83
2021/12/03 04:32:49;;;;;;;64.43;37.53;;;;;;;;;;5023507;28;20041;-82
2021/12/03 04:35:15;;;;;;;66.20;39.35;;;;;;;;;;5022379;28;20409;-82
2021/12/03 04:37:41;;;;;;;66.25;39.92;;;;;;;;;;5019438;28;20382;-81
2021/12/03 04:40:08;;;;;;;67.05;38.53;;;;;;;;;;5018739;28;20441;-82
2021/12/03 04:42:34;;;;;;;61.33;38.13;;;;;;;;;;5018335;28;20053;-80
2021/12/03 04:45:00;;;;;;;59.00;36.00;;;;;;;;;;5018404;28;20057;-81
2021/12/03 04:47:26;;;;;;;73.75;39.35;;;;;;;;;;5019527;28;20046;-80
2021/12/03 04:49:52;;;;;;;62.10;37.50;;;;;;;;;;5019132;28;20104;-81
2021/12/03 04:52:18;;;;;;;54.80;36.83;;;;;;;;;;5019019;28;20042;-82
2021/12/03 04:54:44;;;;;;;65.22;36.60;;;;;;;;;;5018898;28;20068;-81
2021/12/03 04:57:10;;;;;;;59.00;35.55;;;;;;;;;;5018589;28;20042;-81
2021/12/03 04:59:37;;;;;;;67.35;36.10;;;;;;;;;;5018063;28;20042;-81
2021/12/03 05:02:03;;;;;;;60.30;35.67;;;;;;;;;;5018351;28;20068;-82
2021/12/03 05:04:36;;;;;;;61.40;35.55;;;;;;;;;;5017188;28;20347;-80
2021/12/03 05:07:16;;;;;;;58.83;34.13;;;;;;;;;;5017438;28;20118;-81
2021/12/03 05:09:42;;;;;;;59.85;35.67;;;;;;;;;;5019694;28;20056;-82
2021/12/03 05:12:09;;;;;;;57.72;33.92;;;;;;;;;;5019225;28;20052;-82
2021/12/03 05:14:34;;;;;;;61.00;34.65;;;;;;;;;;5020043;28;20088;-83
2021/12/03 05:17:00;;;;;;;62.35;34.88;;;;;;;;;;5019481;28;20054;-82
2021/12/03 05:19:26;;;;;;;57.00;34.35;;;;;;;;;;5019169;28;20096;-82
2021/12/03 05:21:52;;;;;;;59.10;33.20;;;;;;;;;;5027293;28;20038;-79
2021/12/03 05:24:18;;;;;;;53.40;32.90;;;;;;;;;;5022196;28;20042;-80
2021/12/03 05:26:45;;;;;;;57.47;33.40;;;;;;;;;;5022402;28;20073;-80
2021/12/03 05:29:11;;;;;;;52.80;32.88;;;;;;;;;;5022546;28;20037;-80
2021/12/03 05:31:37;;;;;;;49.72;31.10;;;;;;;;;;5019243;28;20451;-80
2021/12/03 05:34:03;;;;;;;58.75;32.38;;;;;;;;;;5016651;28;20045;-80
2021/12/03 05:36:29;;;;;;;57.10;32.72;;;;;;;;;;5017395;28;20038;-80
2021/12/03 05:38:55;;;;;;;65.25;33.75;;;;;;;;;;5017452;28;20409;-79
2021/12/03 05:41:21;;;;;;;58.33;33.58;;;;;;;;;;5022292;28;20048;-79
2021/12/03 05:43:47;;;;;;;60.15;34.15;;;;;;;;;;5020585;28;20042;-80
2021/12/03 05:46:13;;;;;;;59.05;33.25;;;;;;;;;;5024686;28;20457;-79
2021/12/03 05:48:39;;;;;;;61.67;33.90;;;;;;;;;;5024401;28;20431;-79
2021/12/03 05:51:06;;;;;;;68.18;34.88;;;;;;;;;;5022751;28;20088;-80
2021/12/03 05:53:32;;;;;;;52.40;33.35;;;;;;;;;;5019953;28;20121;-80
2021/12/03 05:55:58;;;;;;;62.20;34.63;;;;;;;;;;5024845;28;20072;-80
2021/12/03 05:58:24;;;;;;;62.38;33.63;;;;;;;;;;5022340;28;20113;-80
2021/12/03 06:00:50;;;;;;;57.58;33.63;;;;;;;;;;5022665;28;20076;-81
2021/12/03 06:03:16;;;;;;;55.90;31.25;;;;;;;;;;5022299;28;20091;-81
2021/12/03 06:05:42;;;;;;;51.20;29.98;;;;;;;;;;5021918;28;20121;-79
2021/12/03 06:08:08;;;;;;;56.55;29.23;;;;;;;;;;5022315;28;20049;-80
2021/12/03 06:10:34;;;;;;;51.50;29.15;;;;;;;;;;5021695;28;20045;-80
2021/12/03 06:13:00;;;;;;;53.05;31.15;;;;;;;;;;5021471;28;20425;-81
2021/12/03 06:15:26;;;;;;;48.97;29.08;;;;;;;;;;5019365;28;20038;-80
2021/12/03 06:17:52;;;;;;;55.80;28.77;;;;;;;;;;5025886;28;20049;-80
2021/12/03 06:20:18;;;;;;;45.55;24.38;;;;;;;;;;5019779;28;20355;-80
2021/12/03 06:22:44;;;;;;;50.05;24.83;;;;;;;;;;5019168;28;20057;-79
2021/12/03 06:25:11;;;;;;;36.47;23.20;;;;;;;;;;5019773;28;20068;-79
2021/12/03 06:27:38;;;;;;;34.80;23.05;;;;;;;;;;5029039;28;20126;-79
2021/12/03 06:30:06;;;;;;;37.92;21.67;;;;;;;;;;5023039;28;20046;-81
2021/12/03 06:32:32;;;;;;;46.30;22.65;;;;;;;;;;5020608;28;20065;-81
2021/12/03 06:34:58;;;;;;;39.70;22.13;;;;;;;;;;5032740;28;20053;-79
2021/12/03 06:37:24;;;;;;;43.13;24.02;;;;;;;;;;5024636;28;20044;-80
2021/12/03 06:39:50;;;;;;;41.20;22.98;;;;;;;;;;5022576;28;20719;-80
2021/12/03 06:42:16;;;;;;;44.13;24.52;;;;;;;;;;5023802;28;20048;-80
2021/12/03 06:44:42;;;;;;;40.25;23.98;;;;;;;;;;5022837;28;20449;-80
2021/12/03 06:47:08;;;;;;;43.67;23.55;;;;;;;;;;5020270;28;20050;-80
2021/12/03 06:49:34;;;;;;;44.53;22.60;;;;;;;;;;5019231;28;20042;-80
2021/12/03 06:52:07;;;;;;;40.70;22.08;;;;;;;;;;5018205;28;20064;-80
2021/12/03 06:54:33;;;;;;;41.55;22.80;;;;;;;;;;5021040;28;20048;-78
2021/12/03 06:57:00;;;;;;;36.92;18.92;;;;;;;;;;5020821;28;20037;-79
2021/12/03 06:59:26;;;;;;;33.85;20.73;;;;;;;;;;5020273;28;20038;-79
2021/12/03 07:01:52;;;;;;;39.35;20.48;;;;;;;;;;5017814;28;20049;-79
2021/12/03 07:04:18;;;;;;;35.97;20.20;;;;;;;;;;5018541;28;20041;-79
2021/12/03 07:06:44;;;;;;;38.03;22.48;;;;;;;;;;5017806;28;20048;-78
2021/12/03 07:09:11;;;;;;;42.75;22.25;;;;;;;;;;5017420;28;20061;-79
2021/12/03 07:11:37;;;;;;;38.75;22.52;;;;;;;;;;5018591;28;20046;-79
2021/12/03 07:14:03;;;;;;;44.35;23.63;;;;;;;;;;5019046;28;20042;-79
2021/12/03 07:16:29;;;;;;;51.42;24.83;;;;;;;;;;5017969;28;20359;-79
2021/12/03 07:18:55;;;;;;;40.60;25.17;;;;;;;;;;5023071;28;20099;-79
2021/12/03 07:21:22;;;;;;;51.67;25.50;;;;;;;;;;5017386;28;20033;-79
2021/12/03 07:23:50;;;;;;;44.58;26.65;;;;;;;;;;5017046;28;20038;-79
2021/12/03 07:26:16;;;;;;;58.05;27.10;;;;;;;;;;5021090;28;20038;-79
2021/12/03 07:28:42;;;;;;;47.38;26.65;;;;;;;;;;5023124;28;20056;-79
2021/12/03 07:31:08;;;;;;;51.33;27.63;;;;;;;;;;5019632;28;20431;-79
2021/12/03 07:33:34;;;;;;;53.13;26.50;;;;;;;;;;5030317;28;20132;-79
2021/12/03 07:36:00;;;;;;;46.30;25.73;;;;;;;;;;5018157;28;20065;-79
2021/12/03 07:38:26;;;;;;;52.60;27.23;;;;;;;;;;5021244;28;20561;-79
2021/12/03 07:40:52;;;;;;;48.85;26.30;;;;;;;;;;5018652;28;20053;-79
2021/12/03 07:43:18;;;;;;;49.30;27.55;;;;;;;;;;5017638;28;20045;-79
2021/12/03 07:45:47;;;;;;;53.33;28.63;;;;;;;;;;5017590;28;20050;-79
2021/12/03 07:48:13;;;;;;;53.53;28.60;;;;;;;;;;5016554;28;20041;-79
2021/12/03 07:50:41;;;;;;;48.40;26.25;;;;;;;;;;5017705;28;20056;-76
2021/12/03 07:53:07;;;;;;;48.63;27.58;;;;;;;;;;5018150;28;20045;-79
2021/12/03 07:55:33;;;;;;;54.33;26.40;;;;;;;;;;5019858;28;20117;-79
2021/12/03 07:57:59;;;;;;;46.47;27.20;;;;;;;;;;5020724;28;20022;-79
2021/12/03 08:00:25;;;;;;;52.88;27.40;;;;;;;;;;5017065;28;20034;-79
2021/12/03 08:02:51;;;;;;;47.10;26.70;;;;;;;;;;5018193;28;20446;-78
2021/12/03 08:05:17;;;;;;;48.03;26.13;;;;;;;;;;5033357;28;20049;-78
2021/12/03 08:07:49;;;;;;;45.90;23.90;;;;;;;;;;5023150;28;20038;-80
2021/12/03 08:10:15;;;;;;;43.83;23.08;;;;;;;;;;5018160;28;20057;-80
2021/12/03 08:12:41;;;;;;;43.58;23.10;;;;;;;;;;5018287;28;20049;-80
2021/12/03 08:15:07;;;;;;;52.90;21.55;;;;;;;;;;5019336;28;20033;-79
2021/12/03 08:17:33;;;;;;;40.22;21.13;;;;;;;;;;5018728;28;20114;-80
2021/12/03 08:19:59;;;;;;;44.88;21.52;;;;;;;;;;5018008;28;20045;-80
2021/12/03 08:22:26;;;;;;;40.20;18.27;;;;;;;;;;5019973;28;20045;-80
2021/12/03 08:24:52;;;;;;;34.85;17.70;;;;;;;;;;5021510;28;20049;-80
2021/12/03 08:27:18;;;;;;;31.95;17.73;;;;;;;;;;5022307;28;20076;-79
2021/12/03 08:29:44;;;;;;;37.17;16.65;;;;;;;;;;5022518;28;20046;-80
2021/12/03 08:32:10;;;;;;;29.05;15.25;;;;;;;;;;5028867;28;20057;-80
2021/12/03 08:34:36;;;;;;;26.98;13.57;;;;;;;;;;5024882;28;20038;-80
2021/12/03 08:37:03;;;;;;;25.92;13.40;;;;;;;;;;5030572;28;20045;-79
2021/12/03 08:39:30;;;;;;;27.45;14.20;;;;;;;;;;5035143;28;20068;-78
2021/12/03 08:41:56;;;;;;;23.77;13.05;;;;;;;;;;5031782;28;20066;-79
2021/12/03 08:44:22;;;;;;;35.80;13.75;;;;;;;;;;5030953;28;20092;-79
2021/12/03 08:46:52;;;;;;;30.00;14.35;;;;;;;;;;5026778;28;20112;-79
2021/12/03 08:49:30;;;;;;;31.55;14.35;;;;;;;;;;5021389;28;20124;-80
2021/12/03 08:57:13;;;;;;;36.63;13.50;;;;;;;;;;5019961;28;20103;-81
2021/12/03 08:59:39;;;;;;;32.42;12.73;;;;;;;;;;5019732;28;20477;-81
2021/12/03 09:02:05;;;;;;;25.98;11.68;;;;;;;;;;5018670;28;20048;-84
2021/12/03 09:04:31;;;;;;;27.00;12.18;;;;;;;;;;5018391;28;20038;-80
2021/12/03 09:06:58;;;;;;;23.48;11.95;;;;;;;;;;5019628;28;20049;-80
2021/12/03 09:09:24;;;;;;;20.23;10.15;;;;;;;;;;5019575;28;20366;-82
2021/12/03 09:11:50;;;;;;;18.83;10.57;;;;;;;;;;5019380;28;20038;-81
2021/12/03 09:14:23;;;;;;;24.30;8.98;;;;;;;;;;5021842;28;20100;-80
2021/12/03 09:16:58;;;;;;;36.10;9.38;;;;;;;;;;5021404;28;20053;-83
2021/12/03 09:19:30;;;;;;;20.05;9.30;;;;;;;;;;5022702;28;20355;-83
2021/12/03 09:21:56;;;;;;;28.20;9.82;;;;;;;;;;5021565;28;20073;-79
2021/12/03 09:24:30;;;;;;;18.42;8.85;;;;;;;;;;5023546;28;20446;-80
2021/12/03 09:26:56;;;;;;;15.90;8.15;;;;;;;;;;5023907;28;20073;-80
2021/12/03 09:29:28;;;;;;;20.45;8.68;;;;;;;;;;5024196;28;20601;-80
2021/12/03 09:31:55;;;;;;;19.10;8.80;;;;;;;;;;5023839;28;20056;-80
2021/12/03 09:34:21;;;;;;;16.13;7.13;;;;;;;;;;5020928;28;20434;-80
2021/12/03 09:36:47;;;;;;;15.13;7.20;;;;;;;;;;5020113;28;20038;-80
2021/12/03 09:39:19;;;;;;;17.73;7.22;;;;;;;;;;5030166;28;20176;-80
2021/12/03 09:41:45;;;;;;;18.95;7.50;;;;;;;;;;5031567;28;20100;-81
2021/12/03 09:44:11;;;;;;;18.67;7.50;;;;;;;;;;5029228;28;20058;-81
2021/12/03 09:46:37;;;;;;;27.45;7.50;;;;;;;;;;5021552;28;20049;-80
2021/12/03 09:52:04;;;;;;;21.50;6.43;;;;;;;;;;5025102;28;20107;-78
2021/12/03 09:56:47;;;;;;;19.55;6.55;;;;;;;;;;5019094;28;20034;-80
2021/12/03 10:01:47;;;;;;;14.43;6.18;;;;;;;;;;5022070;28;20041;-80
2021/12/03 10:15:09;;;;;;;20.30;5.10;;;;;;;;;;5020705;28;20353;-79
2021/12/03 10:34:27;;;;;;;19.02;4.13;;;;;;;;;;5024386;28;20061;-80
2021/12/03 10:39:48;;;;;;;14.73;4.63;;;;;;;;;;5010891;28;20061;-81
2021/12/03 10:50:11;;;;;;;11.48;4.82;;;;;;;;;;5032708;28;20030;-80
2021/12/03 10:52:54;;;;;;;14.18;4.50;;;;;;;;;;5022605;28;20426;-80
2021/12/03 11:44:15;;;;;;;12.88;4.38;;;;;;;;;;5007551;28;20046;-81
2021/12/03 12:05:26;;;;;;;12.80;4.10;;;;;;;;;;5025589;28;20048;-80
2021/12/03 12:44:13;;;;;;;8.23;3.55;;;;;;;;;;5029178;28;20046;-81
2021/12/03 12:57:29;;;;;;;7.75;3.42;;;;;;;;;;5030171;28;20034;-81
2021/12/03 13:10:50;;;;;;;15.70;4.40;;;;;;;;;;5031647;28;20038;-78
2021/12/03 13:31:21;;;;;;;8.95;3.75;;;;;;;;;;5023089;28;20034;-81
2021/12/03 14:00:42;;;;;;;7.60;3.08;;;;;;;;;;5021230;28;20076;-80
2021/12/03 14:12:13;;;;;;;7.28;2.75;;;;;;;;;;5022458;28;20037;-81
2021/12/03 14:21:00;;;;;;;5.93;2.80;;;;;;;;;;5022892;28;20076;-81
2021/12/03 14:39:44;;;;;;;7.70;2.55;;;;;;;;;;5025335;28;20044;-81
2021/12/03 14:45:05;;;;;;;5.60;2.80;;;;;;;;;;5023682;28;20037;-81
2021/12/03 14:47:50;;;;;;;7.65;2.90;;;;;;;;;;5025251;28;20108;-81
2021/12/03 14:53:08;;;;;;;4.47;2.70;;;;;;;;;;5024945;28;20037;-81
2021/12/03 14:55:34;;;;;;;5.25;2.60;;;;;;;;;;5024898;28;20052;-81
2021/12/03 14:58:13;;;;;;;10.48;2.92;;;;;;;;;;5023493;28;20109;-81
2021/12/03 15:08:11;;;;;;;6.35;2.45;;;;;;;;;;5024110;28;20052;-81
2021/12/03 15:11:07;;;;;;;6.75;3.17;;;;;;;;;;5029007;28;20068;-81
2021/12/03 15:22:16;;;;;;;8.48;2.65;;;;;;;;;;5023696;28;20056;-81
2021/12/03 15:27:17;;;;;;;10.00;2.97;;;;;;;;;;5024893;28;20050;-79
2021/12/03 15:38:24;;;;;;;8.40;3.15;;;;;;;;;;5011384;28;20048;-81
2021/12/03 15:41:23;;;;;;;7.70;3.22;;;;;;;;;;5022271;28;20038;-80
2021/12/03 16:08:52;;;;;;;8.68;3.72;;;;;;;;;;5007851;28;20080;-79
2021/12/03 16:11:36;;;;;;;9.45;4.10;;;;;;;;;;5018541;28;20069;-78
2021/12/03 16:17:14;;;;;;;6.95;4.05;;;;;;;;;;5019628;28;20046;-78
2021/12/03 16:22:39;;;;;;;8.00;4.50;;;;;;;;;;5018229;28;20042;-78
2021/12/03 16:44:24;;;;;;;8.80;4.57;;;;;;;;;;5018516;28;20374;-78
2021/12/03 16:47:01;;;;;;;6.53;3.90;;;;;;;;;;5023186;28;20083;-80
2021/12/03 16:52:00;;;;;;;6.72;4.43;;;;;;;;;;5020770;28;20057;-80
2021/12/03 16:54:32;;;;;;;7.43;4.57;;;;;;;;;;5021551;28;20034;-80
2021/12/03 16:56:58;;;;;;;7.18;4.43;;;;;;;;;;5022006;28;20050;-80
2021/12/03 16:59:25;;;;;;;9.63;4.82;;;;;;;;;;5020769;28;20050;-80
2021/12/03 17:24:25;;;;;;;10.07;4.78;;;;;;;;;;5026007;28;20046;-79
2021/12/03 17:56:21;;;;;;;9.15;5.57;;;;;;;;;;5024498;28;20034;-80
2021/12/03 17:58:50;;;;;;;8.95;5.53;;;;;;;;;;5024618;28;20038;-80
2021/12/03 18:01:20;;;;;;;9.80;6.03;;;;;;;;;;5024572;28;20103;-80
2021/12/03 18:08:48;;;;;;;14.50;5.38;;;;;;;;;;5023175;28;20065;-81
2021/12/03 18:49:26;;;;;;;8.32;4.63;;;;;;;;;;5019856;28;20037;-77
2021/12/03 18:56:49;;;;;;;8.93;4.55;;;;;;;;;;5020516;28;20048;-79
2021/12/03 18:59:15;;;;;;;7.75;4.43;;;;;;;;;;5019996;28;20057;-79
2021/12/03 19:01:41;;;;;;;8.45;5.03;;;;;;;;;;5020733;28;20101;-77
2021/12/03 19:07:21;;;;;;;8.27;4.63;;;;;;;;;;5021883;28;20367;-79
2021/12/03 19:09:28;;;;;;;8.60;4.28;;;;;;;;;;5018497;28;20112;-78
2021/12/03 19:14:28;;;;;;;12.07;4.85;;;;;;;;;;5020947;28;20069;-80
2021/12/03 19:16:54;;;;;;;9.85;4.95;;;;;;;;;;5022367;28;20077;-80
2021/12/03 19:19:21;;;;;;;7.90;4.38;;;;;;;;;;5023092;28;20049;-79
2021/12/03 19:21:48;;;;;;;7.78;4.70;;;;;;;;;;5021533;28;20038;-80
2021/12/03 19:24:15;;;;;;;6.55;4.15;;;;;;;;;;5022147;28;20113;-79
2021/12/03 19:26:45;;;;;;;6.82;4.25;;;;;;;;;;5022005;28;20097;-80
2021/12/03 19:29:14;;;;;;;8.35;4.47;;;;;;;;;;5023131;28;20117;-79
2021/12/03 19:31:41;;;;;;;8.15;4.28;;;;;;;;;;5022054;28;20038;-80
2021/12/03 19:34:07;;;;;;;5.78;3.63;;;;;;;;;;5025124;28;20033;-79
2021/12/03 19:36:38;;;;;;;8.05;4.10;;;;;;;;;;5020455;28;20038;-79
2021/12/03 19:39:05;;;;;;;10.10;4.20;;;;;;;;;;5026027;28;20108;-79
2021/12/03 19:42:07;;;;;;;6.00;3.60;;;;;;;;;;5022548;28;20056;-79
2021/12/03 19:44:33;;;;;;;5.70;3.67;;;;;;;;;;5019357;28;20176;-78
2021/12/03 19:46:59;;;;;;;7.18;4.03;;;;;;;;;;5027205;28;20078;-77
2021/12/03 19:51:57;;;;;;;6.10;3.72;;;;;;;;;;5028133;28;20045;-77
2021/12/03 19:54:23;;;;;;;8.13;3.45;;;;;;;;;;5029498;28;20100;-78
2021/12/03 19:56:49;;;;;;;6.40;3.63;;;;;;;;;;5027037;28;20037;-78
2021/12/03 19:59:17;;;;;;;4.90;3.42;;;;;;;;;;5026727;28;20046;-78
2021/12/03 20:01:43;;;;;;;6.30;3.85;;;;;;;;;;5025457;28;20046;-78
2021/12/03 20:04:09;;;;;;;9.18;3.63;;;;;;;;;;5027218;28;20101;-78
2021/12/03 20:06:36;;;;;;;5.07;3.33;;;;;;;;;;5027558;28;20049;-78
2021/12/03 20:09:03;;;;;;;6.32;3.75;;;;;;;;;;5028873;28;20041;-78
2021/12/03 20:11:39;;;;;;;8.75;3.47;;;;;;;;;;5029398;28;20094;-79
2021/12/03 20:14:06;;;;;;;7.95;3.70;;;;;;;;;;5031058;28;20050;-79
2021/12/03 20:16:40;;;;;;;6.32;3.70;;;;;;;;;;5029883;28;20077;-78
2021/12/03 20:19:27;;;;;;;8.82;3.15;;;;;;;;;;5030021;28;20042;-80
2021/12/03 20:27:11;;;;;;;6.28;3.28;;;;;;;;;;5029447;28;20042;-79
2021/12/03 20:37:29;;;;;;;7.65;3.28;;;;;;;;;;5030291;28;20048;-79
2021/12/03 20:39:57;;;;;;;5.57;3.28;;;;;;;;;;5029758;28;20029;-79
2021/12/03 20:42:39;;;;;;;5.40;3.13;;;;;;;;;;5031408;28;20071;-78
2021/12/03 20:45:25;;;;;;;5.93;3.10;;;;;;;;;;5030536;28;20042;-77
2021/12/03 21:09:42;;;;;;;5.28;3.00;;;;;;;;;;5030177;28;20076;-78
2021/12/03 21:12:18;;;;;;;4.32;2.92;;;;;;;;;;5031287;28;20042;-78
2021/12/03 21:14:54;;;;;;;4.47;3.13;;;;;;;;;;5032421;28;20086;-78
2021/12/03 21:20:26;;;;;;;5.93;3.38;;;;;;;;;;5031642;28;20038;-79
2021/12/03 21:22:57;;;;;;;4.25;3.03;;;;;;;;;;5024639;28;20084;-81
2021/12/03 21:25:26;;;;;;;5.63;3.15;;;;;;;;;;5027409;28;20049;-78
2021/12/03 21:27:56;;;;;;;4.05;2.95;;;;;;;;;;5026117;28;20034;-79
2021/12/03 21:30:33;;;;;;;6.60;3.20;;;;;;;;;;5022404;28;20096;-78
2021/12/03 21:43:42;;;;;;;4.95;3.47;;;;;;;;;;5022178;28;20104;-78
2021/12/03 21:46:08;;;;;;;6.20;3.75;;;;;;;;;;5028776;28;20042;-77
2021/12/03 21:48:34;;;;;;;9.18;3.78;;;;;;;;;;5022142;28;20037;-79
2021/12/03 21:51:00;;;;;;;5.97;3.00;;;;;;;;;;5022690;28;20097;-78
2021/12/03 21:53:26;;;;;;;5.47;3.47;;;;;;;;;;5028326;28;20064;-77
2021/12/03 21:55:52;;;;;;;5.22;2.92;;;;;;;;;;5040544;28;20081;-77
2021/12/03 21:58:18;;;;;;;6.57;2.90;;;;;;;;;;5027651;28;20136;-79
2021/12/03 22:00:44;;;;;;;5.07;3.20;;;;;;;;;;5020748;28;20041;-78
2021/12/03 22:03:11;;;;;;;5.78;3.35;;;;;;;;;;5021312;28;20057;-80
2021/12/03 22:05:37;;;;;;;6.00;2.83;;;;;;;;;;5020258;28;20104;-78
2021/12/03 22:08:08;;;;;;;5.57;3.00;;;;;;;;;;5019248;28;20041;-78
2021/12/03 22:10:34;;;;;;;6.18;3.78;;;;;;;;;;5019147;28;20052;-78
2021/12/03 22:12:59;;;;;;;5.53;3.38;;;;;;;;;;5020021;28;20037;-78
2021/12/03 22:15:26;;;;;;;8.05;3.70;;;;;;;;;;5027085;28;20034;-78
2021/12/03 22:17:52;;;;;;;5.32;3.08;;;;;;;;;;5028391;28;20033;-78
2021/12/03 22:20:18;;;;;;;6.93;3.00;;;;;;;;;;5027455;28;20063;-79
2021/12/03 22:22:44;;;;;;;5.18;3.20;;;;;;;;;;5021587;28;20454;-78
2021/12/03 22:25:10;;;;;;;7.13;3.35;;;;;;;;;;5018717;28;20076;-77
2021/12/03 22:27:37;;;;;;;4.72;2.85;;;;;;;;;;5019223;28;20046;-78
2021/12/03 22:30:03;;;;;;;5.15;3.33;;;;;;;;;;5019254;28;20104;-79
2021/12/03 22:32:29;;;;;;;6.55;3.00;;;;;;;;;;5019546;28;20454;-79
2021/12/03 22:34:56;;;;;;;4.53;2.78;;;;;;;;;;5019180;28;20045;-78
2021/12/03 22:37:22;;;;;;;4.00;2.88;;;;;;;;;;5021032;28;20038;-79
2021/12/03 22:39:48;;;;;;;5.03;2.90;;;;;;;;;;5020348;28;20041;-78
2021/12/03 22:42:14;;;;;;;4.85;2.85;;;;;;;;;;5020474;28;20116;-77
2021/12/03 22:44:40;;;;;;;5.40;2.80;;;;;;;;;;5038927;28;20064;-77